createdAt,value
2018-07-25T00:01:39.661Z,30.50
2018-07-25T00:06:36.102Z,30.60
2018-07-25T00:09:07.479Z,30.70
2018-07-25T00:14:03.950Z,30.80
2018-07-25T00:16:33.243Z,30.70
2018-07-25T00:19:01.764Z,30.90
2018-07-25T00:21:30.989Z,30.90
2018-07-25T00:23:59.462Z,31.60
2018-07-25T00:26:28.145Z,30.90
2018-07-25T00:28:56.509Z,30.90
2018-07-25T00:31:24.849Z,31.00
2018-07-25T00:33:53.217Z,31.10
2018-07-25T00:36:21.571Z,31.20
2018-07-25T00:38:49.948Z,31.20
2018-07-25T00:41:18.257Z,31.20
2018-07-25T00:43:46.616Z,31.30
2018-07-25T00:46:15.125Z,31.40
2018-07-25T00:48:43.463Z,32.00
2018-07-25T00:51:11.914Z,31.40
2018-07-25T00:53:40.242Z,31.40
2018-07-25T00:56:08.812Z,31.40
2018-07-25T00:58:37.199Z,31.50
2018-07-25T01:01:05.543Z,31.50
2018-07-25T01:03:34.103Z,31.50
2018-07-25T01:06:02.619Z,31.60
2018-07-25T01:08:31.191Z,31.60
2018-07-25T01:11:00.168Z,31.60
2018-07-25T01:13:28.763Z,31.60
2018-07-25T01:15:57.478Z,31.70
2018-07-25T01:18:25.787Z,31.70
2018-07-25T01:20:54.167Z,31.70
2018-07-25T01:23:22.471Z,31.80
2018-07-25T01:25:50.755Z,31.70
2018-07-25T01:28:19.345Z,31.70
2018-07-25T01:30:47.712Z,31.70
2018-07-25T01:33:16.033Z,31.80
2018-07-25T01:35:44.504Z,31.80
2018-07-25T01:40:41.181Z,31.80
2018-07-25T01:43:09.555Z,31.90
2018-07-25T01:45:37.973Z,31.90
2018-07-25T01:48:06.357Z,32.00
2018-07-25T01:53:03.132Z,32.00
2018-07-25T01:55:31.624Z,32.00
2018-07-25T01:58:00.196Z,32.00
2018-07-25T02:00:28.749Z,32.00
2018-07-25T02:02:57.196Z,32.10
2018-07-25T02:05:25.894Z,32.10
2018-07-25T02:07:54.276Z,32.10
2018-07-25T02:10:22.634Z,32.10
2018-07-25T02:12:50.959Z,32.10
2018-07-25T02:15:19.363Z,32.10
2018-07-25T02:17:47.706Z,32.10
2018-07-25T02:20:16.016Z,32.10
2018-07-25T02:22:44.411Z,32.20
2018-07-25T02:25:12.859Z,32.20
2018-07-25T02:27:41.303Z,32.20
2018-07-25T02:30:09.723Z,32.20
2018-07-25T02:32:38.025Z,32.20
2018-07-25T02:35:06.312Z,31.90
2018-07-25T02:37:34.820Z,32.30
2018-07-25T02:42:31.245Z,32.30
2018-07-25T02:44:59.552Z,32.30
2018-07-25T02:47:28.161Z,32.30
2018-07-25T02:52:24.856Z,32.10
2018-07-25T02:54:53.136Z,32.40
2018-07-25T02:57:21.593Z,33.10
2018-07-25T02:59:49.867Z,32.50
2018-07-25T03:02:18.180Z,32.50
2018-07-25T03:04:46.498Z,32.50
2018-07-25T03:07:14.792Z,32.50
2018-07-25T03:09:43.071Z,32.70
2018-07-25T03:12:11.442Z,32.50
2018-07-25T03:14:39.754Z,32.60
2018-07-25T03:17:08.596Z,32.60
2018-07-25T03:19:37.025Z,32.70
2018-07-25T03:22:05.333Z,32.70
2018-07-25T03:24:33.696Z,32.80
2018-07-25T03:27:02.296Z,32.90
2018-07-25T03:29:31.022Z,32.90
2018-07-25T03:31:59.444Z,32.90
2018-07-25T03:36:56.092Z,32.90
2018-07-25T03:39:24.543Z,32.90
2018-07-25T03:41:52.887Z,33.10
2018-07-25T03:44:21.231Z,33.10
2018-07-25T03:46:49.636Z,32.60
2018-07-25T03:49:17.973Z,33.20
2018-07-25T03:51:46.403Z,33.30
2018-07-25T03:54:14.766Z,33.30
2018-07-25T03:56:43.079Z,33.30
2018-07-25T03:59:11.404Z,33.50
2018-07-25T04:01:39.822Z,33.40
2018-07-25T04:04:08.197Z,33.50
2018-07-25T04:06:36.854Z,33.60
2018-07-25T04:09:07.931Z,33.60
2018-07-25T04:11:36.388Z,33.60
2018-07-25T04:14:04.796Z,33.60
2018-07-25T04:16:33.148Z,33.80
2018-07-25T04:19:01.554Z,33.80
2018-07-25T04:21:29.991Z,33.90
2018-07-25T04:23:58.510Z,33.80
2018-07-25T04:26:26.875Z,33.90
2018-07-25T04:28:55.447Z,33.90
2018-07-25T04:33:51.949Z,34.00
2018-07-25T04:36:20.284Z,34.00
2018-07-25T04:38:48.660Z,33.90
2018-07-25T04:41:16.995Z,33.90
2018-07-25T04:43:45.344Z,33.90
2018-07-25T04:46:13.859Z,33.90
2018-07-25T04:48:42.220Z,33.90
2018-07-25T04:51:10.895Z,33.90
2018-07-25T04:53:39.267Z,33.90
2018-07-25T04:56:07.695Z,33.90
2018-07-25T04:58:36.065Z,34.00
2018-07-25T05:01:04.526Z,34.00
2018-07-25T05:03:33.135Z,34.00
2018-07-25T05:06:01.729Z,34.00
2018-07-25T05:08:30.153Z,34.10
2018-07-25T05:10:58.846Z,34.40
2018-07-25T05:13:28.010Z,34.20
2018-07-25T05:15:56.484Z,34.20
2018-07-25T05:18:24.876Z,34.20
2018-07-25T05:20:53.210Z,34.20
2018-07-25T05:23:21.653Z,34.20
2018-07-25T05:25:50.082Z,34.10
2018-07-25T05:28:18.577Z,34.70
2018-07-25T05:30:46.907Z,34.30
2018-07-25T05:33:15.291Z,34.10
2018-07-25T05:38:11.944Z,34.20
2018-07-25T05:40:40.486Z,34.20
2018-07-25T05:43:08.826Z,34.10
2018-07-25T05:45:37.521Z,34.10
2018-07-25T05:48:06.056Z,34.20
2018-07-25T05:50:34.469Z,34.10
2018-07-25T05:53:02.884Z,34.20
2018-07-25T05:55:31.259Z,34.30
2018-07-25T05:57:59.777Z,34.30
2018-07-25T06:00:28.199Z,34.20
2018-07-25T06:02:56.639Z,34.30
2018-07-25T06:05:24.988Z,34.20
2018-07-25T06:07:53.318Z,34.30
2018-07-25T06:10:21.684Z,34.30
2018-07-25T06:12:50.164Z,34.20
2018-07-25T06:15:18.579Z,34.20
2018-07-25T06:17:46.934Z,34.20
2018-07-25T06:20:15.365Z,34.10
2018-07-25T06:22:43.711Z,34.10
2018-07-25T06:25:12.148Z,34.10
2018-07-25T06:27:40.559Z,34.10
2018-07-25T06:30:08.872Z,34.10
2018-07-25T06:32:37.151Z,34.60
2018-07-25T06:35:05.471Z,34.00
2018-07-25T06:37:33.816Z,33.90
2018-07-25T06:40:02.155Z,33.80
2018-07-25T06:42:30.532Z,33.80
2018-07-25T06:44:59.099Z,33.70
2018-07-25T06:47:27.503Z,33.60
2018-07-25T06:49:55.860Z,33.60
2018-07-25T06:52:24.233Z,33.50
2018-07-25T06:54:52.523Z,33.50
2018-07-25T06:57:20.870Z,33.60
2018-07-25T07:02:17.267Z,33.60
2018-07-25T07:04:45.599Z,33.50
2018-07-25T07:07:13.846Z,33.50
2018-07-25T07:09:42.242Z,33.40
2018-07-25T07:12:10.525Z,33.30
2018-07-25T07:14:38.826Z,33.20
2018-07-25T07:17:07.223Z,33.20
2018-07-25T07:19:35.524Z,33.20
2018-07-25T07:22:04.072Z,33.10
2018-07-25T07:24:32.683Z,33.10
2018-07-25T07:27:01.565Z,33.10
2018-07-25T07:29:30.036Z,33.00
2018-07-25T07:31:58.408Z,32.90
2018-07-25T07:34:26.788Z,33.00
2018-07-25T07:36:55.041Z,32.90
2018-07-25T07:39:23.369Z,32.80
2018-07-25T07:41:51.678Z,32.80
2018-07-25T07:44:20.000Z,32.70
2018-07-25T07:46:48.472Z,32.70
2018-07-25T07:49:16.855Z,32.60
2018-07-25T07:54:13.174Z,32.60
2018-07-25T07:56:41.529Z,32.40
2018-07-25T07:59:09.878Z,32.40
2018-07-25T08:01:38.208Z,32.30
2018-07-25T08:04:06.721Z,32.30
2018-07-25T08:06:35.023Z,32.70
2018-07-25T08:09:03.551Z,32.10
2018-07-25T08:11:31.931Z,32.10
2018-07-25T08:14:00.375Z,32.60
2018-07-25T08:16:28.957Z,31.90
2018-07-25T08:18:57.554Z,31.90
2018-07-25T08:21:26.197Z,31.90
2018-07-25T08:23:54.486Z,31.80
2018-07-25T08:26:22.946Z,31.80
2018-07-25T08:28:51.246Z,31.70
2018-07-25T08:31:19.678Z,31.60
2018-07-25T08:33:48.164Z,31.60
2018-07-25T08:36:16.669Z,31.40
2018-07-25T08:38:45.373Z,31.40
2018-07-25T08:41:14.038Z,31.40
2018-07-25T08:43:42.994Z,31.20
2018-07-25T08:46:14.095Z,31.10
2018-07-25T08:48:42.509Z,31.10
2018-07-25T08:51:10.997Z,31.00
2018-07-25T08:53:39.351Z,31.00
2018-07-25T08:56:08.008Z,30.90
2018-07-25T08:58:36.288Z,30.90
2018-07-25T09:01:04.765Z,30.70
2018-07-25T09:03:33.117Z,30.50
2018-07-25T09:06:01.481Z,30.40
2018-07-25T09:08:29.950Z,30.20
2018-07-25T09:10:58.396Z,30.00
2018-07-25T09:13:26.768Z,29.90
2018-07-25T09:15:55.048Z,29.80
2018-07-25T09:18:23.301Z,29.60
2018-07-25T09:20:51.572Z,29.40
2018-07-25T09:23:19.948Z,29.20
2018-07-25T09:25:48.229Z,29.00
2018-07-25T09:28:16.522Z,28.80
2018-07-25T09:30:44.807Z,28.60
2018-07-25T09:33:13.191Z,28.30
2018-07-25T09:35:41.628Z,28.10
2018-07-25T09:38:10.113Z,27.90
2018-07-25T09:40:38.422Z,27.70
2018-07-25T09:43:07.128Z,27.50
2018-07-25T09:45:36.853Z,27.30
2018-07-25T09:48:05.261Z,27.20
2018-07-25T09:50:33.843Z,27.10
2018-07-25T09:53:02.211Z,27.10
2018-07-25T09:55:30.448Z,27.10
2018-07-25T09:57:58.756Z,27.00
2018-07-25T10:00:32.288Z,26.90
2018-07-25T10:03:00.579Z,26.90
2018-07-25T10:05:29.208Z,26.80
2018-07-25T10:07:57.554Z,26.70
2018-07-25T10:10:25.900Z,26.40
2018-07-25T10:12:54.175Z,26.20
2018-07-25T10:15:26.095Z,26.00
2018-07-25T10:17:56.510Z,25.70
2018-07-25T10:20:24.897Z,25.50
2018-07-25T10:22:57.943Z,25.30
2018-07-25T10:27:54.897Z,24.80
2018-07-25T10:30:23.400Z,24.50
2018-07-25T10:32:51.860Z,24.40
2018-07-25T10:35:20.130Z,24.20
2018-07-25T10:37:48.800Z,24.00
2018-07-25T10:40:17.356Z,23.80
2018-07-25T10:42:45.976Z,23.70
2018-07-25T10:45:14.303Z,23.60
2018-07-25T10:47:42.673Z,23.40
2018-07-25T10:50:11.100Z,23.30
2018-07-25T10:52:39.608Z,23.20
2018-07-25T10:55:08.156Z,23.10
2018-07-25T10:57:36.552Z,23.00
2018-07-25T11:00:06.795Z,22.90
2018-07-25T11:02:35.492Z,22.70
2018-07-25T11:05:03.857Z,22.60
2018-07-25T11:07:32.268Z,22.50
2018-07-25T11:10:00.595Z,22.40
2018-07-25T11:12:29.184Z,22.30
2018-07-25T11:14:57.534Z,22.20
2018-07-25T11:17:26.010Z,22.10
2018-07-25T11:19:54.330Z,22.00
2018-07-25T11:22:22.658Z,22.00
2018-07-25T11:24:51.020Z,22.10
2018-07-25T11:27:19.375Z,22.20
2018-07-25T11:29:47.731Z,22.40
2018-07-25T11:32:16.118Z,22.70
2018-07-25T11:34:44.474Z,22.90
2018-07-25T11:37:12.892Z,23.20
2018-07-25T11:39:41.365Z,23.40
2018-07-25T11:42:10.142Z,23.60
2018-07-25T11:44:38.736Z,23.60
2018-07-25T11:47:07.353Z,23.70
2018-07-25T11:49:35.852Z,23.60
2018-07-25T11:52:04.225Z,23.60
2018-07-25T11:54:32.640Z,23.60
2018-07-25T11:57:01.052Z,23.60
2018-07-25T11:59:29.500Z,23.50
2018-07-25T12:01:57.912Z,23.50
2018-07-25T12:04:26.390Z,23.40
2018-07-25T12:06:54.806Z,23.30
2018-07-25T12:09:23.200Z,23.30
2018-07-25T12:11:51.524Z,23.20
2018-07-25T12:14:19.953Z,23.20
2018-07-25T12:16:48.552Z,23.70
2018-07-25T12:19:16.946Z,23.20
2018-07-25T12:21:45.291Z,23.10
2018-07-25T12:24:13.730Z,23.00
2018-07-25T12:26:42.263Z,22.50
2018-07-25T12:29:10.961Z,22.80
2018-07-25T12:31:39.473Z,22.70
2018-07-25T12:34:08.050Z,22.70
2018-07-25T12:36:36.783Z,22.60
2018-07-25T12:39:07.999Z,22.50
2018-07-25T12:41:37.069Z,22.50
2018-07-25T12:44:05.850Z,22.40
2018-07-25T12:49:02.476Z,22.30
2018-07-25T12:51:31.049Z,22.10
2018-07-25T12:53:59.479Z,22.10
2018-07-25T12:56:27.735Z,22.00
2018-07-25T12:58:56.088Z,21.90
2018-07-25T13:01:24.403Z,21.70
2018-07-25T13:03:52.876Z,21.60
2018-07-25T13:06:21.234Z,21.50
2018-07-25T13:08:49.724Z,21.40
2018-07-25T13:11:18.284Z,21.30
2018-07-25T13:13:46.995Z,21.10
2018-07-25T13:16:15.575Z,21.00
2018-07-25T13:18:44.118Z,20.80
2018-07-25T13:21:12.497Z,20.70
2018-07-25T13:23:40.923Z,20.50
2018-07-25T13:26:09.368Z,20.40
2018-07-25T13:28:37.894Z,20.40
2018-07-25T13:31:06.403Z,20.40
2018-07-25T13:33:34.812Z,20.60
2018-07-25T13:36:03.383Z,20.70
2018-07-25T13:38:31.819Z,21.00
2018-07-25T13:41:00.264Z,21.20
2018-07-25T13:43:28.599Z,21.40
2018-07-25T13:45:57.001Z,21.60
2018-07-25T13:50:53.485Z,22.10
2018-07-25T13:53:21.803Z,22.30
2018-07-25T13:55:50.379Z,23.00
2018-07-25T13:58:18.783Z,22.60
2018-07-25T14:00:47.120Z,22.80
2018-07-25T14:03:15.533Z,23.00
2018-07-25T14:05:44.054Z,23.10
2018-07-25T14:08:12.492Z,23.20
2018-07-25T14:10:40.903Z,23.40
2018-07-25T14:13:09.484Z,23.50
2018-07-25T14:15:38.173Z,23.50
2018-07-25T14:18:06.776Z,23.40
2018-07-25T14:20:35.098Z,23.40
2018-07-25T14:23:03.536Z,23.30
2018-07-25T14:25:32.000Z,23.10
2018-07-25T14:28:00.331Z,22.90
2018-07-25T14:30:28.874Z,22.80
2018-07-25T14:32:57.511Z,22.90
2018-07-25T14:35:25.996Z,22.70
2018-07-25T14:37:54.336Z,22.60
2018-07-25T14:40:22.848Z,22.40
2018-07-25T14:42:51.079Z,22.40
2018-07-25T14:45:19.496Z,22.30
2018-07-25T14:47:48.216Z,22.30
2018-07-25T14:50:16.592Z,22.30
2018-07-25T14:52:44.961Z,22.40
2018-07-25T14:55:13.384Z,22.40
2018-07-25T14:57:41.755Z,22.50
2018-07-25T15:00:10.392Z,22.60
2018-07-25T15:02:38.928Z,22.60
2018-07-25T15:05:07.323Z,22.70
2018-07-25T15:07:35.721Z,22.80
2018-07-25T15:10:04.855Z,22.80
2018-07-25T15:12:38.724Z,22.90
2018-07-25T15:15:07.406Z,23.00
2018-07-25T15:17:35.856Z,23.20
2018-07-25T15:20:04.673Z,23.80
2018-07-25T15:22:33.220Z,23.40
2018-07-25T15:25:01.977Z,23.50
2018-07-25T15:27:30.469Z,23.60
2018-07-25T15:29:58.971Z,23.70
2018-07-25T15:32:27.348Z,23.80
2018-07-25T15:34:55.708Z,23.80
2018-07-25T15:37:24.229Z,23.90
2018-07-25T15:39:52.663Z,24.50
2018-07-25T15:42:21.018Z,24.10
2018-07-25T15:44:49.427Z,23.80
2018-07-25T15:47:17.934Z,24.20
2018-07-25T15:49:46.364Z,24.20
2018-07-25T15:52:14.756Z,24.20
2018-07-25T15:54:43.189Z,24.20
2018-07-25T15:57:18.304Z,24.30
2018-07-25T15:59:46.809Z,24.30
2018-07-25T16:02:15.105Z,24.30
2018-07-25T16:04:43.625Z,24.40
2018-07-25T16:07:12.047Z,24.40
2018-07-25T16:09:40.600Z,24.40
2018-07-25T16:12:09.160Z,24.40
2018-07-25T16:14:37.735Z,24.50
2018-07-25T16:17:06.642Z,24.60
2018-07-25T16:19:35.048Z,24.60
2018-07-25T16:22:05.852Z,24.60
2018-07-25T16:24:34.193Z,24.60
2018-07-25T16:27:02.554Z,24.70
2018-07-25T16:29:31.100Z,24.70
2018-07-25T16:31:59.593Z,24.80
2018-07-25T16:34:27.994Z,24.90
2018-07-25T16:36:56.425Z,24.90
2018-07-25T16:39:24.823Z,25.00
2018-07-25T16:41:53.213Z,25.10
2018-07-25T16:44:21.587Z,25.00
2018-07-25T16:46:50.150Z,25.00
2018-07-25T16:49:18.527Z,25.10
2018-07-25T16:51:47.037Z,25.20
2018-07-25T16:54:15.581Z,25.20
2018-07-25T16:56:44.313Z,25.20
2018-07-25T16:59:13.214Z,25.20
2018-07-25T17:01:41.838Z,25.80
2018-07-25T17:04:10.276Z,25.30
2018-07-25T17:06:38.774Z,25.40
2018-07-25T17:09:09.843Z,25.40
2018-07-25T17:14:06.348Z,25.80
2018-07-25T17:16:34.761Z,25.50
2018-07-25T17:19:03.144Z,25.50
2018-07-25T17:21:31.508Z,25.60
2018-07-25T17:23:59.907Z,25.60
2018-07-25T17:26:28.441Z,25.70
2018-07-25T17:28:56.961Z,25.70
2018-07-25T17:31:25.305Z,25.70
2018-07-25T17:33:53.801Z,26.20
2018-07-25T17:36:22.347Z,25.80
2018-07-25T17:38:50.748Z,25.80
2018-07-25T17:41:19.124Z,25.80
2018-07-25T17:43:47.501Z,25.90
2018-07-25T17:46:15.872Z,25.90
2018-07-25T17:48:44.326Z,25.90
2018-07-25T17:51:12.783Z,25.90
2018-07-25T17:53:41.147Z,26.00
2018-07-25T17:56:09.816Z,26.00
2018-07-25T17:58:38.382Z,26.10
2018-07-25T18:01:06.781Z,26.00
2018-07-25T18:03:35.146Z,26.10
2018-07-25T18:06:03.436Z,26.20
2018-07-25T18:08:31.813Z,26.20
2018-07-25T18:11:00.145Z,26.20
2018-07-25T18:13:33.890Z,26.20
2018-07-25T18:16:02.229Z,26.30
2018-07-25T18:18:30.536Z,26.40
2018-07-25T18:20:59.410Z,26.30
2018-07-25T18:23:27.659Z,26.40
2018-07-25T18:25:56.076Z,26.50
2018-07-25T18:28:24.463Z,26.50
2018-07-25T18:30:52.943Z,26.50
2018-07-25T18:33:21.458Z,26.60
2018-07-25T18:35:49.865Z,26.70
2018-07-25T18:38:18.294Z,26.70
2018-07-25T18:40:46.679Z,26.70
2018-07-25T18:43:15.157Z,26.80
2018-07-25T18:45:43.628Z,26.80
2018-07-25T18:48:12.283Z,26.80
2018-07-25T18:50:41.058Z,26.90
2018-07-25T18:53:09.717Z,26.90
2018-07-25T18:55:38.063Z,27.00
2018-07-25T18:58:06.463Z,27.00
2018-07-25T19:00:34.863Z,27.00
2018-07-25T19:03:03.240Z,27.00
2018-07-25T19:05:32.223Z,27.10
2018-07-25T19:08:02.015Z,27.10
2018-07-25T19:10:30.839Z,27.10
2018-07-25T19:12:59.302Z,27.10
2018-07-25T19:15:32.167Z,27.20
2018-07-25T19:18:02.008Z,27.20
2018-07-25T19:20:37.316Z,27.20
2018-07-25T19:23:07.354Z,27.20
2018-07-25T19:25:35.851Z,27.20
2018-07-25T19:28:04.239Z,27.30
2018-07-25T19:30:32.558Z,27.20
2018-07-25T19:33:00.889Z,27.30
2018-07-25T19:35:29.220Z,27.30
2018-07-25T19:37:57.504Z,27.40
2018-07-25T19:40:25.860Z,27.30
2018-07-25T19:42:55.014Z,27.40
2018-07-25T19:45:23.374Z,27.40
2018-07-25T19:47:51.906Z,27.40
2018-07-25T19:50:20.326Z,27.90
2018-07-25T19:52:48.647Z,27.50
2018-07-25T19:55:16.993Z,27.40
2018-07-25T19:57:45.275Z,27.50
2018-07-25T20:00:16.549Z,27.50
2018-07-25T20:02:42.151Z,27.50
2018-07-25T20:05:10.891Z,27.50
2018-07-25T20:07:39.435Z,27.50
2018-07-25T20:10:07.855Z,27.60
2018-07-25T20:12:36.273Z,27.60
2018-07-25T20:15:10.756Z,27.70
2018-07-25T20:17:39.152Z,27.70
2018-07-25T20:20:08.697Z,27.70
2018-07-25T20:22:37.120Z,27.70
2018-07-25T20:25:05.990Z,27.70
2018-07-25T20:27:34.576Z,28.20
2018-07-25T20:30:02.982Z,27.70
2018-07-25T20:32:31.500Z,27.80
2018-07-25T20:34:59.843Z,27.80
2018-07-25T20:37:28.296Z,27.80
2018-07-25T20:39:56.780Z,27.80
2018-07-25T20:42:25.154Z,27.90
2018-07-25T20:44:53.445Z,27.90
2018-07-25T20:47:21.825Z,27.90
2018-07-25T20:49:50.272Z,27.90
2018-07-25T20:52:18.624Z,27.90
2018-07-25T20:54:47.006Z,27.90
2018-07-25T20:57:15.324Z,27.90
2018-07-25T20:59:43.659Z,27.90
2018-07-25T21:02:12.186Z,28.00
2018-07-25T21:04:40.564Z,27.90
2018-07-25T21:08:12.369Z,28.00
2018-07-25T21:10:40.890Z,28.00
2018-07-25T21:13:09.397Z,28.00
2018-07-25T21:15:37.787Z,28.10
2018-07-25T21:18:06.205Z,28.20
2018-07-25T21:20:34.577Z,28.20
2018-07-25T21:23:03.014Z,28.20
2018-07-25T21:25:31.332Z,28.20
2018-07-25T21:27:59.824Z,28.20
2018-07-25T21:30:28.229Z,28.20
2018-07-25T21:35:25.012Z,28.30
2018-07-25T21:37:53.855Z,28.30
2018-07-25T21:40:22.356Z,28.30
2018-07-25T21:42:50.795Z,28.40
2018-07-25T21:45:19.320Z,28.40
2018-07-25T21:47:47.680Z,28.40
2018-07-25T21:50:16.167Z,28.50
2018-07-25T21:52:44.516Z,28.50
2018-07-25T21:55:12.955Z,28.60
2018-07-25T21:57:41.313Z,28.70
2018-07-25T22:00:13.610Z,28.80
2018-07-25T22:02:42.559Z,28.80
2018-07-25T22:05:11.323Z,28.90
2018-07-25T22:07:39.718Z,28.80
2018-07-25T22:10:08.608Z,28.90
2018-07-25T22:12:37.484Z,29.00
2018-07-25T22:15:06.844Z,29.10
2018-07-25T22:17:35.303Z,29.00
2018-07-25T22:20:03.956Z,29.20
2018-07-25T22:22:32.288Z,29.60
2018-07-25T22:25:00.744Z,29.10
2018-07-25T22:27:29.076Z,29.20
2018-07-25T22:29:57.468Z,29.20
2018-07-25T22:32:25.759Z,29.20
2018-07-25T22:34:54.205Z,29.30
2018-07-25T22:37:22.611Z,29.30
2018-07-25T22:39:50.899Z,29.40
2018-07-25T22:42:19.222Z,29.40
2018-07-25T22:44:47.523Z,29.40
2018-07-25T22:47:15.938Z,29.50
2018-07-25T22:49:44.272Z,29.50
2018-07-25T22:52:12.625Z,29.50
2018-07-25T22:54:40.986Z,29.60
2018-07-25T22:57:09.324Z,29.60
2018-07-25T22:59:37.681Z,29.70
2018-07-25T23:02:06.255Z,29.70
2018-07-25T23:04:34.563Z,29.70
2018-07-25T23:07:02.855Z,29.80
2018-07-25T23:09:31.151Z,29.90
2018-07-25T23:11:59.461Z,29.90
2018-07-25T23:14:27.858Z,29.90
2018-07-25T23:16:56.119Z,30.00
2018-07-25T23:19:24.423Z,30.00
2018-07-25T23:21:52.743Z,30.00
2018-07-25T23:24:21.057Z,30.00
2018-07-25T23:29:17.573Z,30.00
2018-07-25T23:31:46.064Z,30.00
2018-07-25T23:34:14.663Z,30.10
2018-07-25T23:36:43.358Z,30.10
2018-07-25T23:39:12.427Z,30.20
2018-07-25T23:41:40.818Z,30.10
2018-07-25T23:44:09.257Z,30.20
2018-07-25T23:46:37.963Z,30.20
2018-07-25T23:49:06.435Z,30.30
2018-07-25T23:51:35.036Z,30.40
2018-07-25T23:54:03.600Z,30.30
2018-07-25T23:56:32.029Z,30.40
2018-07-25T23:59:00.707Z,30.50
